sensor_id;sensor_type;location;lat;lon;timestamp;P1;durP1;ratioP1;P2;durP2;ratioP2
17422;SDS011;8829;47.932;7.810;2024-01-30T00:00:06;2.37;;;1.57;;
17422;SDS011;8829;47.932;7.810;2024-01-30T00:02:34;1.43;;;1.33;;
17422;SDS011;8829;47.932;7.810;2024-01-30T00:05:02;1.40;;;1.30;;
17422;SDS011;8829;47.932;7.810;2024-01-30T00:07:29;1.30;;;1.30;;
17422;SDS011;8829;47.932;7.810;2024-01-30T00:09:56;1.40;;;1.33;;
17422;SDS011;8829;47.932;7.810;2024-01-30T00:12:23;2.13;;;1.40;;
17422;SDS011;8829;47.932;7.810;2024-01-30T00:14:51;2.90;;;1.20;;
17422;SDS011;8829;47.932;7.810;2024-01-30T00:17:18;1.03;;;1.00;;
17422;SDS011;8829;47.932;7.810;2024-01-30T00:19:45;2.03;;;1.50;;
17422;SDS011;8829;47.932;7.810;2024-01-30T00:22:13;1.40;;;1.30;;
17422;SDS011;8829;47.932;7.810;2024-01-30T00:24:40;1.20;;;1.10;;
17422;SDS011;8829;47.932;7.810;2024-01-30T00:27:07;1.63;;;1.43;;
17422;SDS011;8829;47.932;7.810;2024-01-30T00:29:34;2.33;;;1.70;;
17422;SDS011;8829;47.932;7.810;2024-01-30T00:32:01;1.40;;;1.30;;
17422;SDS011;8829;47.932;7.810;2024-01-30T00:34:27;4.33;;;1.83;;
17422;SDS011;8829;47.932;7.810;2024-01-30T00:36:54;3.27;;;1.30;;
17422;SDS011;8829;47.932;7.810;2024-01-30T00:39:22;2.67;;;1.50;;
17422;SDS011;8829;47.932;7.810;2024-01-30T00:41:49;1.50;;;1.40;;
17422;SDS011;8829;47.932;7.810;2024-01-30T00:44:15;1.93;;;1.37;;
17422;SDS011;8829;47.932;7.810;2024-01-30T00:46:43;1.40;;;1.30;;
17422;SDS011;8829;47.932;7.810;2024-01-30T00:49:10;1.30;;;1.20;;
17422;SDS011;8829;47.932;7.810;2024-01-30T00:51:36;3.03;;;1.40;;
17422;SDS011;8829;47.932;7.810;2024-01-30T00:54:03;1.30;;;1.20;;
17422;SDS011;8829;47.932;7.810;2024-01-30T00:56:32;1.63;;;1.53;;
17422;SDS011;8829;47.932;7.810;2024-01-30T00:58:59;1.40;;;1.30;;
17422;SDS011;8829;47.932;7.810;2024-01-30T01:01:26;1.40;;;1.30;;
17422;SDS011;8829;47.932;7.810;2024-01-30T01:03:53;1.37;;;1.27;;
17422;SDS011;8829;47.932;7.810;2024-01-30T01:06:19;1.97;;;1.87;;
17422;SDS011;8829;47.932;7.810;2024-01-30T01:08:46;1.37;;;1.30;;
17422;SDS011;8829;47.932;7.810;2024-01-30T01:11:13;1.63;;;1.53;;
17422;SDS011;8829;47.932;7.810;2024-01-30T01:13:41;1.30;;;1.20;;
17422;SDS011;8829;47.932;7.810;2024-01-30T01:16:07;1.73;;;1.23;;
17422;SDS011;8829;47.932;7.810;2024-01-30T01:18:34;3.13;;;1.40;;
17422;SDS011;8829;47.932;7.810;2024-01-30T01:21:01;1.47;;;1.37;;
17422;SDS011;8829;47.932;7.810;2024-01-30T01:23:27;2.20;;;1.50;;
17422;SDS011;8829;47.932;7.810;2024-01-30T01:25:54;1.60;;;1.50;;
17422;SDS011;8829;47.932;7.810;2024-01-30T01:28:20;1.70;;;1.40;;
17422;SDS011;8829;47.932;7.810;2024-01-30T01:30:48;1.40;;;1.37;;
17422;SDS011;8829;47.932;7.810;2024-01-30T01:33:15;2.13;;;1.53;;
17422;SDS011;8829;47.932;7.810;2024-01-30T01:35:42;1.40;;;1.30;;
17422;SDS011;8829;47.932;7.810;2024-01-30T01:38:09;1.60;;;1.50;;
17422;SDS011;8829;47.932;7.810;2024-01-30T01:40:36;1.53;;;1.43;;
17422;SDS011;8829;47.932;7.810;2024-01-30T01:43:04;1.60;;;1.37;;
17422;SDS011;8829;47.932;7.810;2024-01-30T01:45:32;1.87;;;1.30;;
17422;SDS011;8829;47.932;7.810;2024-01-30T01:48:00;2.27;;;2.07;;
17422;SDS011;8829;47.932;7.810;2024-01-30T01:50:26;1.70;;;1.60;;
17422;SDS011;8829;47.932;7.810;2024-01-30T01:52:53;2.20;;;1.23;;
17422;SDS011;8829;47.932;7.810;2024-01-30T01:55:20;1.40;;;1.30;;
17422;SDS011;8829;47.932;7.810;2024-01-30T01:57:49;1.30;;;1.20;;
17422;SDS011;8829;47.932;7.810;2024-01-30T02:00:16;1.30;;;1.30;;
17422;SDS011;8829;47.932;7.810;2024-01-30T02:02:44;1.33;;;1.23;;
17422;SDS011;8829;47.932;7.810;2024-01-30T02:05:13;1.23;;;1.20;;
17422;SDS011;8829;47.932;7.810;2024-01-30T02:07:40;1.80;;;1.40;;
17422;SDS011;8829;47.932;7.810;2024-01-30T02:10:07;1.40;;;1.30;;
17422;SDS011;8829;47.932;7.810;2024-01-30T02:12:34;1.40;;;1.30;;
17422;SDS011;8829;47.932;7.810;2024-01-30T02:15:01;2.67;;;1.80;;
17422;SDS011;8829;47.932;7.810;2024-01-30T02:17:29;2.33;;;1.30;;
17422;SDS011;8829;47.932;7.810;2024-01-30T02:19:56;2.90;;;1.30;;
17422;SDS011;8829;47.932;7.810;2024-01-30T02:22:24;1.80;;;1.17;;
17422;SDS011;8829;47.932;7.810;2024-01-30T02:24:51;1.80;;;1.37;;
17422;SDS011;8829;47.932;7.810;2024-01-30T02:27:18;1.90;;;1.37;;
17422;SDS011;8829;47.932;7.810;2024-01-30T02:29:45;1.57;;;1.40;;
17422;SDS011;8829;47.932;7.810;2024-01-30T02:32:11;1.90;;;1.80;;
17422;SDS011;8829;47.932;7.810;2024-01-30T02:34:38;1.60;;;1.50;;
17422;SDS011;8829;47.932;7.810;2024-01-30T02:37:05;1.90;;;1.37;;
17422;SDS011;8829;47.932;7.810;2024-01-30T02:39:33;1.60;;;1.50;;
17422;SDS011;8829;47.932;7.810;2024-01-30T02:42:00;1.50;;;1.40;;
17422;SDS011;8829;47.932;7.810;2024-01-30T02:44:26;1.63;;;1.53;;
17422;SDS011;8829;47.932;7.810;2024-01-30T02:46:53;1.67;;;1.57;;
17422;SDS011;8829;47.932;7.810;2024-01-30T02:49:20;1.30;;;1.20;;
17422;SDS011;8829;47.932;7.810;2024-01-30T02:51:46;1.53;;;1.43;;
17422;SDS011;8829;47.932;7.810;2024-01-30T02:54:13;1.70;;;1.60;;
17422;SDS011;8829;47.932;7.810;2024-01-30T02:56:41;1.73;;;1.63;;
17422;SDS011;8829;47.932;7.810;2024-01-30T02:59:08;1.50;;;1.40;;
17422;SDS011;8829;47.932;7.810;2024-01-30T03:01:41;1.30;;;1.20;;
17422;SDS011;8829;47.932;7.810;2024-01-30T03:04:09;1.80;;;1.40;;
17422;SDS011;8829;47.932;7.810;2024-01-30T03:06:35;1.60;;;1.50;;
17422;SDS011;8829;47.932;7.810;2024-01-30T03:09:02;2.80;;;1.53;;
17422;SDS011;8829;47.932;7.810;2024-01-30T03:11:29;3.17;;;1.97;;
17422;SDS011;8829;47.932;7.810;2024-01-30T03:13:57;2.23;;;1.37;;
17422;SDS011;8829;47.932;7.810;2024-01-30T03:16:24;1.83;;;1.73;;
17422;SDS011;8829;47.932;7.810;2024-01-30T03:18:51;2.93;;;1.70;;
17422;SDS011;8829;47.932;7.810;2024-01-30T03:21:17;1.67;;;1.57;;
17422;SDS011;8829;47.932;7.810;2024-01-30T03:23:44;3.27;;;1.90;;
17422;SDS011;8829;47.932;7.810;2024-01-30T03:26:11;2.10;;;1.43;;
17422;SDS011;8829;47.932;7.810;2024-01-30T03:28:38;2.07;;;1.87;;
17422;SDS011;8829;47.932;7.810;2024-01-30T03:31:06;2.00;;;1.80;;
17422;SDS011;8829;47.932;7.810;2024-01-30T03:33:33;1.80;;;1.70;;
17422;SDS011;8829;47.932;7.810;2024-01-30T03:36:02;2.73;;;1.57;;
17422;SDS011;8829;47.932;7.810;2024-01-30T03:38:29;1.80;;;1.70;;
17422;SDS011;8829;47.932;7.810;2024-01-30T03:40:57;2.17;;;1.80;;
17422;SDS011;8829;47.932;7.810;2024-01-30T03:43:24;3.57;;;1.70;;
17422;SDS011;8829;47.932;7.810;2024-01-30T03:45:51;1.90;;;1.80;;
17422;SDS011;8829;47.932;7.810;2024-01-30T03:48:19;2.83;;;1.90;;
17422;SDS011;8829;47.932;7.810;2024-01-30T03:50:47;2.27;;;1.63;;
17422;SDS011;8829;47.932;7.810;2024-01-30T03:53:13;1.73;;;1.63;;
17422;SDS011;8829;47.932;7.810;2024-01-30T03:55:40;1.70;;;1.60;;
17422;SDS011;8829;47.932;7.810;2024-01-30T03:58:08;1.90;;;1.70;;
17422;SDS011;8829;47.932;7.810;2024-01-30T04:00:35;1.97;;;1.83;;
17422;SDS011;8829;47.932;7.810;2024-01-30T04:03:02;1.53;;;1.53;;
17422;SDS011;8829;47.932;7.810;2024-01-30T04:05:30;1.73;;;1.63;;
17422;SDS011;8829;47.932;7.810;2024-01-30T04:07:57;4.07;;;2.40;;
17422;SDS011;8829;47.932;7.810;2024-01-30T04:10:24;1.90;;;1.80;;
17422;SDS011;8829;47.932;7.810;2024-01-30T04:12:50;2.43;;;1.70;;
17422;SDS011;8829;47.932;7.810;2024-01-30T04:15:18;2.43;;;1.90;;
17422;SDS011;8829;47.932;7.810;2024-01-30T04:17:45;3.03;;;2.30;;
17422;SDS011;8829;47.932;7.810;2024-01-30T04:20:13;1.87;;;1.60;;
17422;SDS011;8829;47.932;7.810;2024-01-30T04:22:43;3.13;;;1.87;;
17422;SDS011;8829;47.932;7.810;2024-01-30T04:25:10;1.70;;;1.60;;
17422;SDS011;8829;47.932;7.810;2024-01-30T04:27:37;1.90;;;1.80;;
17422;SDS011;8829;47.932;7.810;2024-01-30T04:30:04;1.70;;;1.60;;
17422;SDS011;8829;47.932;7.810;2024-01-30T04:32:31;1.73;;;1.57;;
17422;SDS011;8829;47.932;7.810;2024-01-30T04:34:58;2.00;;;1.67;;
17422;SDS011;8829;47.932;7.810;2024-01-30T04:37:25;2.60;;;1.80;;
17422;SDS011;8829;47.932;7.810;2024-01-30T04:39:53;3.03;;;1.93;;
17422;SDS011;8829;47.932;7.810;2024-01-30T04:42:20;2.00;;;1.90;;
17422;SDS011;8829;47.932;7.810;2024-01-30T04:44:46;1.63;;;1.53;;
17422;SDS011;8829;47.932;7.810;2024-01-30T04:47:13;1.67;;;1.57;;
17422;SDS011;8829;47.932;7.810;2024-01-30T04:49:40;3.03;;;1.77;;
17422;SDS011;8829;47.932;7.810;2024-01-30T04:52:07;1.60;;;1.50;;
17422;SDS011;8829;47.932;7.810;2024-01-30T04:54:35;1.53;;;1.43;;
17422;SDS011;8829;47.932;7.810;2024-01-30T04:57:03;1.77;;;1.53;;
17422;SDS011;8829;47.932;7.810;2024-01-30T04:59:34;1.30;;;1.30;;
17422;SDS011;8829;47.932;7.810;2024-01-30T05:02:01;1.73;;;1.63;;
17422;SDS011;8829;47.932;7.810;2024-01-30T05:04:27;1.43;;;1.33;;
17422;SDS011;8829;47.932;7.810;2024-01-30T05:06:54;3.03;;;1.30;;
17422;SDS011;8829;47.932;7.810;2024-01-30T05:09:21;1.60;;;1.50;;
17422;SDS011;8829;47.932;7.810;2024-01-30T05:11:47;3.17;;;1.40;;
17422;SDS011;8829;47.932;7.810;2024-01-30T05:14:15;2.43;;;2.23;;
17422;SDS011;8829;47.932;7.810;2024-01-30T05:16:42;2.70;;;2.27;;
17422;SDS011;8829;47.932;7.810;2024-01-30T05:19:11;1.63;;;1.53;;
17422;SDS011;8829;47.932;7.810;2024-01-30T05:21:38;2.07;;;1.93;;
17422;SDS011;8829;47.932;7.810;2024-01-30T05:24:05;1.50;;;1.40;;
17422;SDS011;8829;47.932;7.810;2024-01-30T05:26:34;1.53;;;1.40;;
17422;SDS011;8829;47.932;7.810;2024-01-30T05:29:01;2.60;;;1.30;;
17422;SDS011;8829;47.932;7.810;2024-01-30T05:31:29;1.53;;;1.40;;
17422;SDS011;8829;47.932;7.810;2024-01-30T05:33:56;2.00;;;1.80;;
17422;SDS011;8829;47.932;7.810;2024-01-30T05:36:22;1.77;;;1.67;;
17422;SDS011;8829;47.932;7.810;2024-01-30T05:38:49;2.63;;;1.80;;
17422;SDS011;8829;47.932;7.810;2024-01-30T05:41:16;2.93;;;1.80;;
17422;SDS011;8829;47.932;7.810;2024-01-30T05:43:42;1.73;;;1.60;;
17422;SDS011;8829;47.932;7.810;2024-01-30T05:46:09;2.97;;;2.20;;
17422;SDS011;8829;47.932;7.810;2024-01-30T05:48:37;1.60;;;1.50;;
17422;SDS011;8829;47.932;7.810;2024-01-30T05:51:04;3.93;;;1.80;;
17422;SDS011;8829;47.932;7.810;2024-01-30T05:53:33;2.73;;;1.93;;
17422;SDS011;8829;47.932;7.810;2024-01-30T05:56:00;1.60;;;1.50;;
17422;SDS011;8829;47.932;7.810;2024-01-30T05:58:27;1.73;;;1.63;;
17422;SDS011;8829;47.932;7.810;2024-01-30T06:00:56;1.60;;;1.50;;
17422;SDS011;8829;47.932;7.810;2024-01-30T06:03:23;1.80;;;1.70;;
17422;SDS011;8829;47.932;7.810;2024-01-30T06:05:51;1.80;;;1.70;;
17422;SDS011;8829;47.932;7.810;2024-01-30T06:08:17;3.47;;;1.70;;
17422;SDS011;8829;47.932;7.810;2024-01-30T06:10:44;1.80;;;1.70;;
17422;SDS011;8829;47.932;7.810;2024-01-30T06:13:12;2.07;;;1.93;;
17422;SDS011;8829;47.932;7.810;2024-01-30T06:15:39;1.83;;;1.73;;
17422;SDS011;8829;47.932;7.810;2024-01-30T06:18:06;1.93;;;1.83;;
17422;SDS011;8829;47.932;7.810;2024-01-30T06:20:33;2.47;;;2.20;;
17422;SDS011;8829;47.932;7.810;2024-01-30T06:23:01;1.93;;;1.83;;
17422;SDS011;8829;47.932;7.810;2024-01-30T06:25:28;2.00;;;1.80;;
17422;SDS011;8829;47.932;7.810;2024-01-30T06:27:55;1.90;;;1.80;;
17422;SDS011;8829;47.932;7.810;2024-01-30T06:30:22;1.53;;;1.43;;
17422;SDS011;8829;47.932;7.810;2024-01-30T06:32:48;3.30;;;2.00;;
17422;SDS011;8829;47.932;7.810;2024-01-30T06:35:15;3.57;;;2.00;;
17422;SDS011;8829;47.932;7.810;2024-01-30T06:37:42;2.00;;;1.90;;
17422;SDS011;8829;47.932;7.810;2024-01-30T06:40:11;2.10;;;2.00;;
17422;SDS011;8829;47.932;7.810;2024-01-30T06:42:38;2.00;;;1.90;;
17422;SDS011;8829;47.932;7.810;2024-01-30T06:45:05;2.03;;;1.83;;
17422;SDS011;8829;47.932;7.810;2024-01-30T06:47:33;2.10;;;1.90;;
17422;SDS011;8829;47.932;7.810;2024-01-30T06:49:59;2.33;;;2.13;;
17422;SDS011;8829;47.932;7.810;2024-01-30T06:52:27;2.50;;;2.03;;
17422;SDS011;8829;47.932;7.810;2024-01-30T06:54:53;2.50;;;2.03;;
17422;SDS011;8829;47.932;7.810;2024-01-30T06:57:22;2.00;;;1.90;;
17422;SDS011;8829;47.932;7.810;2024-01-30T06:59:49;2.30;;;2.00;;
17422;SDS011;8829;47.932;7.810;2024-01-30T07:02:16;1.97;;;1.83;;
17422;SDS011;8829;47.932;7.810;2024-01-30T07:04:42;2.10;;;1.93;;
17422;SDS011;8829;47.932;7.810;2024-01-30T07:07:10;3.07;;;1.83;;
17422;SDS011;8829;47.932;7.810;2024-01-30T07:09:38;4.03;;;2.37;;
17422;SDS011;8829;47.932;7.810;2024-01-30T07:12:05;3.13;;;2.33;;
17422;SDS011;8829;47.932;7.810;2024-01-30T07:14:34;2.30;;;2.10;;
17422;SDS011;8829;47.932;7.810;2024-01-30T07:17:00;3.07;;;2.10;;
17422;SDS011;8829;47.932;7.810;2024-01-30T07:19:29;3.30;;;2.30;;
17422;SDS011;8829;47.932;7.810;2024-01-30T07:21:56;2.00;;;1.90;;
17422;SDS011;8829;47.932;7.810;2024-01-30T07:24:22;2.50;;;2.13;;
17422;SDS011;8829;47.932;7.810;2024-01-30T07:26:49;1.90;;;1.80;;
17422;SDS011;8829;47.932;7.810;2024-01-30T07:29:16;2.10;;;1.90;;
17422;SDS011;8829;47.932;7.810;2024-01-30T07:31:44;1.70;;;1.60;;
17422;SDS011;8829;47.932;7.810;2024-01-30T07:34:11;1.90;;;1.80;;
17422;SDS011;8829;47.932;7.810;2024-01-30T07:36:38;2.77;;;2.10;;
17422;SDS011;8829;47.932;7.810;2024-01-30T07:39:05;2.10;;;1.90;;
17422;SDS011;8829;47.932;7.810;2024-01-30T07:41:31;2.00;;;1.80;;
17422;SDS011;8829;47.932;7.810;2024-01-30T07:43:58;2.30;;;2.03;;
17422;SDS011;8829;47.932;7.810;2024-01-30T07:46:26;2.57;;;1.90;;
17422;SDS011;8829;47.932;7.810;2024-01-30T07:48:54;1.90;;;1.73;;
17422;SDS011;8829;47.932;7.810;2024-01-30T07:51:22;3.10;;;2.27;;
17422;SDS011;8829;47.932;7.810;2024-01-30T07:53:50;3.90;;;1.87;;
17422;SDS011;8829;47.932;7.810;2024-01-30T07:56:17;3.00;;;2.13;;
17422;SDS011;8829;47.932;7.810;2024-01-30T07:58:44;2.10;;;1.70;;
17422;SDS011;8829;47.932;7.810;2024-01-30T08:01:10;1.90;;;1.80;;
17422;SDS011;8829;47.932;7.810;2024-01-30T08:03:37;2.10;;;1.90;;
17422;SDS011;8829;47.932;7.810;2024-01-30T08:06:07;2.90;;;2.20;;
17422;SDS011;8829;47.932;7.810;2024-01-30T08:08:33;1.93;;;1.73;;
17422;SDS011;8829;47.932;7.810;2024-01-30T08:11:00;2.30;;;1.90;;
17422;SDS011;8829;47.932;7.810;2024-01-30T08:13:27;2.50;;;1.67;;
17422;SDS011;8829;47.932;7.810;2024-01-30T08:15:53;2.10;;;1.83;;
17422;SDS011;8829;47.932;7.810;2024-01-30T08:18:20;3.67;;;1.70;;
17422;SDS011;8829;47.932;7.810;2024-01-30T08:20:47;1.93;;;1.70;;
17422;SDS011;8829;47.932;7.810;2024-01-30T08:23:15;3.00;;;2.20;;
17422;SDS011;8829;47.932;7.810;2024-01-30T08:25:42;2.50;;;1.80;;
17422;SDS011;8829;47.932;7.810;2024-01-30T08:28:08;1.90;;;1.77;;
17422;SDS011;8829;47.932;7.810;2024-01-30T08:30:35;2.03;;;1.87;;
17422;SDS011;8829;47.932;7.810;2024-01-30T08:33:04;3.67;;;1.80;;
17422;SDS011;8829;47.932;7.810;2024-01-30T08:35:30;2.47;;;2.27;;
17422;SDS011;8829;47.932;7.810;2024-01-30T08:37:58;1.83;;;1.73;;
17422;SDS011;8829;47.932;7.810;2024-01-30T08:40:26;2.27;;;2.00;;
17422;SDS011;8829;47.932;7.810;2024-01-30T08:42:53;3.17;;;2.20;;
17422;SDS011;8829;47.932;7.810;2024-01-30T08:45:20;2.00;;;1.90;;
17422;SDS011;8829;47.932;7.810;2024-01-30T08:47:47;2.50;;;1.73;;
17422;SDS011;8829;47.932;7.810;2024-01-30T08:50:14;2.03;;;1.83;;
17422;SDS011;8829;47.932;7.810;2024-01-30T08:52:40;2.15;;;1.92;;
17422;SDS011;8829;47.932;7.810;2024-01-30T08:55:07;2.40;;;1.97;;
17422;SDS011;8829;47.932;7.810;2024-01-30T08:57:35;1.90;;;1.80;;
17422;SDS011;8829;47.932;7.810;2024-01-30T09:00:02;2.23;;;2.03;;
17422;SDS011;8829;47.932;7.810;2024-01-30T09:02:31;1.90;;;1.80;;
17422;SDS011;8829;47.932;7.810;2024-01-30T09:04:58;2.93;;;1.73;;
17422;SDS011;8829;47.932;7.810;2024-01-30T09:07:25;2.33;;;1.70;;
17422;SDS011;8829;47.932;7.810;2024-01-30T09:09:51;2.03;;;1.83;;
17422;SDS011;8829;47.932;7.810;2024-01-30T09:12:18;2.33;;;2.10;;
17422;SDS011;8829;47.932;7.810;2024-01-30T09:14:46;4.03;;;2.63;;
17422;SDS011;8829;47.932;7.810;2024-01-30T09:17:13;2.03;;;1.93;;
17422;SDS011;8829;47.932;7.810;2024-01-30T09:19:40;3.13;;;2.20;;
17422;SDS011;8829;47.932;7.810;2024-01-30T09:22:07;2.13;;;1.70;;
17422;SDS011;8829;47.932;7.810;2024-01-30T09:24:33;3.93;;;2.60;;
17422;SDS011;8829;47.932;7.810;2024-01-30T09:27:00;3.37;;;2.10;;
17422;SDS011;8829;47.932;7.810;2024-01-30T09:29:27;3.57;;;2.73;;
17422;SDS011;8829;47.932;7.810;2024-01-30T09:31:55;3.53;;;3.13;;
17422;SDS011;8829;47.932;7.810;2024-01-30T09:34:22;2.23;;;2.07;;
17422;SDS011;8829;47.932;7.810;2024-01-30T09:36:49;2.40;;;2.20;;
17422;SDS011;8829;47.932;7.810;2024-01-30T09:39:16;3.80;;;2.63;;
17422;SDS011;8829;47.932;7.810;2024-01-30T09:41:45;2.53;;;2.33;;
17422;SDS011;8829;47.932;7.810;2024-01-30T09:44:15;3.17;;;2.20;;
17422;SDS011;8829;47.932;7.810;2024-01-30T09:46:42;2.47;;;2.27;;
17422;SDS011;8829;47.932;7.810;2024-01-30T09:49:12;2.70;;;2.50;;
17422;SDS011;8829;47.932;7.810;2024-01-30T09:51:39;2.60;;;2.13;;
17422;SDS011;8829;47.932;7.810;2024-01-30T09:54:07;2.40;;;2.20;;
17422;SDS011;8829;47.932;7.810;2024-01-30T09:56:35;2.50;;;2.30;;
17422;SDS011;8829;47.932;7.810;2024-01-30T09:59:02;3.67;;;2.97;;
17422;SDS011;8829;47.932;7.810;2024-01-30T10:01:29;3.93;;;2.83;;
17422;SDS011;8829;47.932;7.810;2024-01-30T10:03:57;4.93;;;4.43;;
17422;SDS011;8829;47.932;7.810;2024-01-30T10:06:25;5.30;;;3.47;;
17422;SDS011;8829;47.932;7.810;2024-01-30T10:08:53;3.83;;;2.90;;
17422;SDS011;8829;47.932;7.810;2024-01-30T10:11:21;3.85;;;2.50;;
17422;SDS011;8829;47.932;7.810;2024-01-30T10:13:50;2.10;;;2.00;;
17422;SDS011;8829;47.932;7.810;2024-01-30T10:16:17;2.20;;;2.00;;
17422;SDS011;8829;47.932;7.810;2024-01-30T10:18:45;2.33;;;2.13;;
17422;SDS011;8829;47.932;7.810;2024-01-30T10:21:12;2.13;;;1.93;;
17422;SDS011;8829;47.932;7.810;2024-01-30T10:23:40;3.63;;;2.20;;
17422;SDS011;8829;47.932;7.810;2024-01-30T10:26:10;3.53;;;1.97;;
17422;SDS011;8829;47.932;7.810;2024-01-30T10:28:37;2.90;;;1.90;;
17422;SDS011;8829;47.932;7.810;2024-01-30T10:31:03;4.07;;;2.53;;
17422;SDS011;8829;47.932;7.810;2024-01-30T10:33:31;2.63;;;1.83;;
17422;SDS011;8829;47.932;7.810;2024-01-30T10:36:00;2.80;;;2.60;;
17422;SDS011;8829;47.932;7.810;2024-01-30T10:38:28;2.23;;;2.03;;
17422;SDS011;8829;47.932;7.810;2024-01-30T10:41:00;2.70;;;2.50;;
17422;SDS011;8829;47.932;7.810;2024-01-30T10:43:29;3.40;;;2.10;;
17422;SDS011;8829;47.932;7.810;2024-01-30T10:46:01;2.03;;;1.87;;
17422;SDS011;8829;47.932;7.810;2024-01-30T10:48:37;2.87;;;2.00;;
17422;SDS011;8829;47.932;7.810;2024-01-30T10:51:09;1.60;;;1.50;;
17422;SDS011;8829;47.932;7.810;2024-01-30T10:53:37;1.80;;;1.40;;
17422;SDS011;8829;47.932;7.810;2024-01-30T10:56:07;1.87;;;1.50;;
17422;SDS011;8829;47.932;7.810;2024-01-30T10:58:38;1.63;;;1.53;;
17422;SDS011;8829;47.932;7.810;2024-01-30T11:01:05;1.37;;;1.30;;
17422;SDS011;8829;47.932;7.810;2024-01-30T11:03:33;1.97;;;1.87;;
17422;SDS011;8829;47.932;7.810;2024-01-30T11:06:02;2.50;;;2.03;;
17422;SDS011;8829;47.932;7.810;2024-01-30T11:08:31;1.70;;;1.60;;
17422;SDS011;8829;47.932;7.810;2024-01-30T11:10:59;2.20;;;1.90;;
17422;SDS011;8829;47.932;7.810;2024-01-30T11:13:27;1.50;;;1.40;;
17422;SDS011;8829;47.932;7.810;2024-01-30T11:15:55;1.50;;;1.40;;
17422;SDS011;8829;47.932;7.810;2024-01-30T11:18:27;2.33;;;2.03;;
17422;SDS011;8829;47.932;7.810;2024-01-30T11:20:56;3.90;;;2.30;;
17422;SDS011;8829;47.932;7.810;2024-01-30T11:23:25;4.47;;;1.93;;
17422;SDS011;8829;47.932;7.810;2024-01-30T11:25:53;2.10;;;1.57;;
17422;SDS011;8829;47.932;7.810;2024-01-30T11:28:20;1.67;;;1.30;;
17422;SDS011;8829;47.932;7.810;2024-01-30T11:30:49;2.03;;;1.50;;
17422;SDS011;8829;47.932;7.810;2024-01-30T11:33:26;1.50;;;1.40;;
17422;SDS011;8829;47.932;7.810;2024-01-30T11:35:55;1.13;;;1.13;;
17422;SDS011;8829;47.932;7.810;2024-01-30T11:38:23;1.73;;;1.60;;
17422;SDS011;8829;47.932;7.810;2024-01-30T11:40:52;1.60;;;1.50;;
17422;SDS011;8829;47.932;7.810;2024-01-30T11:43:20;1.67;;;1.50;;
17422;SDS011;8829;47.932;7.810;2024-01-30T11:45:46;1.40;;;1.30;;
17422;SDS011;8829;47.932;7.810;2024-01-30T11:48:15;1.60;;;1.50;;
17422;SDS011;8829;47.932;7.810;2024-01-30T11:50:42;1.83;;;1.40;;
17422;SDS011;8829;47.932;7.810;2024-01-30T11:53:10;1.73;;;1.63;;
17422;SDS011;8829;47.932;7.810;2024-01-30T11:55:37;2.30;;;2.10;;
17422;SDS011;8829;47.932;7.810;2024-01-30T11:58:04;1.83;;;1.73;;
17422;SDS011;8829;47.932;7.810;2024-01-30T12:00:31;1.27;;;1.17;;
17422;SDS011;8829;47.932;7.810;2024-01-30T12:02:58;1.50;;;1.40;;
17422;SDS011;8829;47.932;7.810;2024-01-30T12:05:27;1.37;;;1.33;;
17422;SDS011;8829;47.932;7.810;2024-01-30T12:07:54;1.47;;;1.37;;
17422;SDS011;8829;47.932;7.810;2024-01-30T12:10:23;1.30;;;1.30;;
17422;SDS011;8829;47.932;7.810;2024-01-30T12:12:50;3.63;;;2.20;;
17422;SDS011;8829;47.932;7.810;2024-01-30T12:15:18;1.93;;;1.83;;
17422;SDS011;8829;47.932;7.810;2024-01-30T12:17:47;1.80;;;1.65;;
17422;SDS011;8829;47.932;7.810;2024-01-30T12:20:14;1.77;;;1.67;;
17422;SDS011;8829;47.932;7.810;2024-01-30T12:22:45;2.10;;;1.63;;
17422;SDS011;8829;47.932;7.810;2024-01-30T12:25:13;2.03;;;1.57;;
17422;SDS011;8829;47.932;7.810;2024-01-30T12:27:42;1.70;;;1.60;;
17422;SDS011;8829;47.932;7.810;2024-01-30T12:30:10;1.43;;;1.33;;
17422;SDS011;8829;47.932;7.810;2024-01-30T12:32:39;2.13;;;1.80;;
17422;SDS011;8829;47.932;7.810;2024-01-30T12:35:07;3.90;;;2.00;;
17422;SDS011;8829;47.932;7.810;2024-01-30T12:37:36;1.90;;;1.80;;
17422;SDS011;8829;47.932;7.810;2024-01-30T12:40:06;3.70;;;2.90;;
17422;SDS011;8829;47.932;7.810;2024-01-30T12:42:34;4.80;;;2.40;;
17422;SDS011;8829;47.932;7.810;2024-01-30T12:45:01;2.00;;;1.90;;
17422;SDS011;8829;47.932;7.810;2024-01-30T12:47:28;1.70;;;1.60;;
17422;SDS011;8829;47.932;7.810;2024-01-30T12:49:55;1.70;;;1.60;;
17422;SDS011;8829;47.932;7.810;2024-01-30T12:52:22;2.10;;;1.90;;
17422;SDS011;8829;47.932;7.810;2024-01-30T12:54:50;1.60;;;1.50;;
17422;SDS011;8829;47.932;7.810;2024-01-30T12:57:19;1.60;;;1.37;;
17422;SDS011;8829;47.932;7.810;2024-01-30T12:59:46;1.67;;;1.33;;
17422;SDS011;8829;47.932;7.810;2024-01-30T13:02:13;2.13;;;1.80;;
17422;SDS011;8829;47.932;7.810;2024-01-30T13:04:40;1.80;;;1.70;;
17422;SDS011;8829;47.932;7.810;2024-01-30T13:07:08;1.73;;;1.63;;
17422;SDS011;8829;47.932;7.810;2024-01-30T13:09:34;1.43;;;1.33;;
17422;SDS011;8829;47.932;7.810;2024-01-30T13:12:01;1.43;;;1.37;;
17422;SDS011;8829;47.932;7.810;2024-01-30T13:14:29;4.47;;;1.73;;
17422;SDS011;8829;47.932;7.810;2024-01-30T13:16:56;2.70;;;1.63;;
17422;SDS011;8829;47.932;7.810;2024-01-30T13:19:23;1.80;;;1.70;;
17422;SDS011;8829;47.932;7.810;2024-01-30T13:21:50;1.97;;;1.77;;
17422;SDS011;8829;47.932;7.810;2024-01-30T13:24:16;1.43;;;1.27;;
17422;SDS011;8829;47.932;7.810;2024-01-30T13:26:46;1.87;;;1.47;;
17422;SDS011;8829;47.932;7.810;2024-01-30T13:29:13;4.27;;;1.77;;
17422;SDS011;8829;47.932;7.810;2024-01-30T13:31:41;2.83;;;2.13;;
17422;SDS011;8829;47.932;7.810;2024-01-30T13:34:09;2.03;;;1.60;;
17422;SDS011;8829;47.932;7.810;2024-01-30T13:36:36;2.93;;;1.50;;
17422;SDS011;8829;47.932;7.810;2024-01-30T13:39:05;1.90;;;1.67;;
17422;SDS011;8829;47.932;7.810;2024-01-30T13:41:34;1.40;;;1.30;;
17422;SDS011;8829;47.932;7.810;2024-01-30T13:44:01;1.73;;;1.63;;
17422;SDS011;8829;47.932;7.810;2024-01-30T13:46:28;2.30;;;1.63;;
17422;SDS011;8829;47.932;7.810;2024-01-30T13:48:56;2.33;;;1.50;;
17422;SDS011;8829;47.932;7.810;2024-01-30T13:51:23;1.60;;;1.50;;
17422;SDS011;8829;47.932;7.810;2024-01-30T13:53:50;1.80;;;1.60;;
17422;SDS011;8829;47.932;7.810;2024-01-30T13:56:16;1.40;;;1.30;;
17422;SDS011;8829;47.932;7.810;2024-01-30T13:58:43;1.37;;;1.20;;
17422;SDS011;8829;47.932;7.810;2024-01-30T14:01:10;2.90;;;1.60;;
17422;SDS011;8829;47.932;7.810;2024-01-30T14:03:38;3.93;;;2.93;;
17422;SDS011;8829;47.932;7.810;2024-01-30T14:06:06;4.20;;;2.10;;
17422;SDS011;8829;47.932;7.810;2024-01-30T14:08:33;2.20;;;2.00;;
17422;SDS011;8829;47.932;7.810;2024-01-30T14:10:59;2.60;;;1.80;;
17422;SDS011;8829;47.932;7.810;2024-01-30T14:13:26;2.63;;;1.97;;
17422;SDS011;8829;47.932;7.810;2024-01-30T14:15:53;1.70;;;1.60;;
17422;SDS011;8829;47.932;7.810;2024-01-30T14:18:20;3.00;;;2.40;;
17422;SDS011;8829;47.932;7.810;2024-01-30T14:20:47;2.57;;;2.00;;
17422;SDS011;8829;47.932;7.810;2024-01-30T14:23:16;2.30;;;1.80;;
17422;SDS011;8829;47.932;7.810;2024-01-30T14:25:43;2.53;;;1.70;;
17422;SDS011;8829;47.932;7.810;2024-01-30T14:28:10;2.83;;;1.97;;
17422;SDS011;8829;47.932;7.810;2024-01-30T14:30:37;1.90;;;1.80;;
17422;SDS011;8829;47.932;7.810;2024-01-30T14:33:04;2.10;;;1.97;;
17422;SDS011;8829;47.932;7.810;2024-01-30T14:35:31;1.80;;;1.70;;
17422;SDS011;8829;47.932;7.810;2024-01-30T14:37:58;2.20;;;2.00;;
17422;SDS011;8829;47.932;7.810;2024-01-30T14:40:27;3.20;;;2.40;;
17422;SDS011;8829;47.932;7.810;2024-01-30T14:42:54;3.07;;;2.30;;
17422;SDS011;8829;47.932;7.810;2024-01-30T14:45:21;4.13;;;2.97;;
17422;SDS011;8829;47.932;7.810;2024-01-30T14:47:48;2.40;;;2.30;;
17422;SDS011;8829;47.932;7.810;2024-01-30T14:50:15;3.40;;;2.20;;
17422;SDS011;8829;47.932;7.810;2024-01-30T14:52:42;2.53;;;2.20;;
17422;SDS011;8829;47.932;7.810;2024-01-30T14:55:09;2.40;;;2.20;;
17422;SDS011;8829;47.932;7.810;2024-01-30T14:57:37;2.47;;;2.10;;
17422;SDS011;8829;47.932;7.810;2024-01-30T15:00:07;2.30;;;2.10;;